Time;durP1;ratioP1;P1;durP2;ratioP2;P2;SDS_P1;SDS_P2;PMS_P1;PMS_P2;Temp;Humidity;BMP_temperature;BMP_pressure;BME280_temperature;BME280_humidity;BME280_pressure;Samples;Min_cycle;Max_cycle;Signal;HPM_P1;HPM_P2
2021/08/30 00:01:51;;;;;;;33.43;22.83;;;;;;;;;;5010309;28;20415;-49
2021/08/30 00:04:17;;;;;;;31.10;22.77;;;;;;;;;;5012481;28;20402;-49
2021/08/30 00:06:44;;;;;;;28.77;20.57;;;;;;;;;;5012380;28;20416;-49
2021/08/30 00:09:10;;;;;;;30.83;21.60;;;;;;;;;;5012430;28;20391;-49
2021/08/30 00:11:36;;;;;;;38.10;23.00;;;;;;;;;;5012094;28;20459;-47
2021/08/30 00:14:02;;;;;;;28.23;20.67;;;;;;;;;;5010476;28;20404;-49
2021/08/30 00:16:28;;;;;;;41.30;20.53;;;;;;;;;;5012190;28;20495;-48
2021/08/30 00:18:54;;;;;;;33.53;20.97;;;;;;;;;;5012297;28;20543;-49
2021/08/30 00:21:20;;;;;;;34.40;20.27;;;;;;;;;;5012022;28;20383;-49
2021/08/30 00:23:46;;;;;;;33.70;21.73;;;;;;;;;;5012222;28;20936;-49
2021/08/30 00:26:12;;;;;;;30.87;21.23;;;;;;;;;;5012231;28;20379;-48
2021/08/30 00:28:40;;;;;;;30.00;22.17;;;;;;;;;;5012136;28;20451;-48
2021/08/30 00:31:06;;;;;;;35.20;22.67;;;;;;;;;;5009918;28;20380;-48
2021/08/30 00:33:32;;;;;;;35.03;20.83;;;;;;;;;;5012140;28;20383;-49
2021/08/30 00:35:58;;;;;;;34.33;22.60;;;;;;;;;;5011703;28;20410;-49
2021/08/30 00:38:24;;;;;;;39.90;21.10;;;;;;;;;;5012033;28;20408;-49
2021/08/30 00:40:50;;;;;;;28.43;19.83;;;;;;;;;;5011810;28;20413;-49
2021/08/30 00:43:15;;;;;;;36.63;21.60;;;;;;;;;;5012023;28;20401;-49
2021/08/30 00:45:41;;;;;;;31.67;22.50;;;;;;;;;;5011918;28;20416;-48
2021/08/30 00:48:07;;;;;;;28.70;21.37;;;;;;;;;;5011952;28;20402;-47
2021/08/30 00:50:34;;;;;;;31.80;21.93;;;;;;;;;;5011992;28;20706;-49
2021/08/30 00:53:00;;;;;;;31.40;21.33;;;;;;;;;;5011590;28;20471;-47
2021/08/30 00:55:26;;;;;;;30.70;20.80;;;;;;;;;;5011952;28;20407;-48
2021/08/30 00:57:52;;;;;;;31.50;22.03;;;;;;;;;;5011728;28;21065;-47
2021/08/30 01:00:18;;;;;;;31.73;21.20;;;;;;;;;;5011853;28;20478;-48
2021/08/30 01:02:44;;;;;;;61.57;23.30;;;;;;;;;;5009222;28;20402;-48
2021/08/30 01:05:11;;;;;;;31.23;22.00;;;;;;;;;;5010489;28;20574;-49
2021/08/30 01:07:43;;;;;;;38.90;21.13;;;;;;;;;;5011440;28;20440;-49
2021/08/30 01:10:13;;;;;;;50.90;20.53;;;;;;;;;;5011767;28;20952;-49
2021/08/30 01:12:42;;;;;;;32.93;20.27;;;;;;;;;;5011458;28;20431;-47
2021/08/30 01:15:13;;;;;;;34.20;21.87;;;;;;;;;;5011720;28;20379;-48
2021/08/30 01:17:39;;;;;;;36.50;23.50;;;;;;;;;;5011658;28;20472;-48
2021/08/30 01:20:11;;;;;;;43.43;22.37;;;;;;;;;;5011721;28;20855;-47
2021/08/30 01:22:39;;;;;;;31.90;20.47;;;;;;;;;;5011427;28;20480;-46
2021/08/30 01:25:06;;;;;;;33.77;21.73;;;;;;;;;;5011668;28;20413;-48
2021/08/30 01:27:32;;;;;;;75.63;23.37;;;;;;;;;;5011566;28;20412;-46
2021/08/30 01:30:00;;;;;;;40.07;22.03;;;;;;;;;;5011650;28;20887;-45
2021/08/30 01:32:37;;;;;;;32.13;22.27;;;;;;;;;;5009424;28;20530;-46
2021/08/30 01:35:08;;;;;;;72.43;22.40;;;;;;;;;;5011641;28;20878;-48
2021/08/30 01:37:36;;;;;;;34.90;22.60;;;;;;;;;;5011527;28;20416;-47
2021/08/30 01:40:02;;;;;;;33.10;22.90;;;;;;;;;;5011708;28;20377;-46
2021/08/30 01:42:29;;;;;;;45.57;22.47;;;;;;;;;;5011222;28;20436;-48
2021/08/30 01:44:55;;;;;;;34.23;21.17;;;;;;;;;;5011489;28;20409;-48
2021/08/30 01:47:22;;;;;;;32.23;21.07;;;;;;;;;;5012388;28;20397;-48
2021/08/30 01:50:00;;;;;;;39.37;20.97;;;;;;;;;;5014958;28;20867;-47
2021/08/30 01:52:27;;;;;;;37.20;21.70;;;;;;;;;;5014544;28;20458;-49
2021/08/30 01:54:54;;;;;;;32.27;20.77;;;;;;;;;;5014808;28;20383;-48
2021/08/30 01:57:22;;;;;;;28.83;19.87;;;;;;;;;;5014580;28;20913;-48
2021/08/30 02:02:35;;;;;;;30.03;20.47;;;;;;;;;;5013610;28;20776;-48
2021/08/30 02:05:01;;;;;;;32.17;20.67;;;;;;;;;;5014606;28;20410;-49
2021/08/30 02:07:27;;;;;;;52.73;20.83;;;;;;;;;;5014514;28;20395;-48
2021/08/30 02:09:53;;;;;;;34.60;22.20;;;;;;;;;;5014612;28;20375;-49
2021/08/30 02:12:19;;;;;;;32.87;21.70;;;;;;;;;;5014113;28;20509;-48
2021/08/30 02:14:45;;;;;;;32.70;21.57;;;;;;;;;;5014481;28;20859;-49
2021/08/30 02:17:17;;;;;;;40.53;23.40;;;;;;;;;;5014288;28;20420;-47
2021/08/30 02:19:56;;;;;;;33.43;22.10;;;;;;;;;;5014383;28;20408;-48
2021/08/30 02:22:29;;;;;;;37.43;22.00;;;;;;;;;;5014076;28;20404;-48
2021/08/30 02:24:58;;;;;;;29.93;20.77;;;;;;;;;;5014304;28;20397;-48
2021/08/30 02:27:26;;;;;;;36.37;20.20;;;;;;;;;;5014132;28;20436;-48
2021/08/30 02:30:27;;;;;;;30.27;19.00;;;;;;;;;;5014117;28;20466;-48
2021/08/30 02:32:54;;;;;;;31.70;20.10;;;;;;;;;;4932888;29;20520;-48
2021/08/30 02:35:24;;;;;;;40.00;21.07;;;;;;;;;;4998382;28;20446;-48
2021/08/30 02:37:51;;;;;;;35.87;22.17;;;;;;;;;;5013988;28;20404;-46
2021/08/30 02:40:18;;;;;;;35.50;22.20;;;;;;;;;;5014023;28;20411;-49
2021/08/30 02:42:47;;;;;;;31.97;22.60;;;;;;;;;;5013659;28;20384;-48
2021/08/30 02:45:14;;;;;;;38.63;21.60;;;;;;;;;;5013950;28;20538;-48
2021/08/30 02:47:41;;;;;;;30.60;21.37;;;;;;;;;;5013745;28;20431;-48
2021/08/30 02:50:07;;;;;;;38.47;21.30;;;;;;;;;;5013804;28;20371;-48
2021/08/30 02:52:34;;;;;;;32.90;20.63;;;;;;;;;;5013377;28;20453;-47
2021/08/30 02:55:00;;;;;;;31.63;20.60;;;;;;;;;;5013609;28;20893;-48
2021/08/30 02:57:26;;;;;;;42.40;20.10;;;;;;;;;;5013377;28;20440;-47
2021/08/30 02:59:53;;;;;;;31.83;20.60;;;;;;;;;;5013339;28;20374;-49
2021/08/30 03:02:20;;;;;;;31.50;21.50;;;;;;;;;;4984666;28;20819;-49
2021/08/30 03:04:47;;;;;;;114.77;22.63;;;;;;;;;;4993958;28;20391;-47
2021/08/30 03:07:13;;;;;;;29.07;20.70;;;;;;;;;;4993780;28;20497;-48
2021/08/30 03:09:39;;;;;;;32.57;21.37;;;;;;;;;;4993878;28;20878;-48
2021/08/30 03:12:06;;;;;;;32.07;22.10;;;;;;;;;;4993363;28;20435;-48
2021/08/30 03:14:34;;;;;;;38.00;23.70;;;;;;;;;;4993801;28;20529;-49
2021/08/30 03:17:01;;;;;;;33.90;22.67;;;;;;;;;;4993672;28;20437;-48
2021/08/30 03:19:28;;;;;;;38.97;22.77;;;;;;;;;;4993707;28;20408;-49
2021/08/30 03:21:54;;;;;;;34.70;21.73;;;;;;;;;;4993257;28;20927;-48
2021/08/30 03:24:21;;;;;;;40.20;23.67;;;;;;;;;;4994331;28;20434;-44
2021/08/30 03:26:50;;;;;;;40.60;22.13;;;;;;;;;;4993385;28;20449;-44
2021/08/30 03:29:17;;;;;;;34.43;23.77;;;;;;;;;;4993389;28;20384;-45
2021/08/30 03:31:44;;;;;;;34.50;23.33;;;;;;;;;;4999351;28;20550;-44
2021/08/30 03:34:11;;;;;;;46.03;23.20;;;;;;;;;;5012642;28;20458;-47
2021/08/30 03:36:37;;;;;;;32.10;19.83;;;;;;;;;;5012816;28;20405;-45
2021/08/30 03:39:04;;;;;;;38.20;23.43;;;;;;;;;;5013021;28;20413;-44
2021/08/30 03:41:31;;;;;;;35.40;23.30;;;;;;;;;;5012594;28;20403;-44
2021/08/30 03:43:58;;;;;;;37.43;22.90;;;;;;;;;;5012814;28;20374;-45
2021/08/30 03:46:24;;;;;;;34.43;22.20;;;;;;;;;;5012797;28;20382;-44
2021/08/30 03:48:50;;;;;;;32.27;23.77;;;;;;;;;;5012648;28;20837;-45
2021/08/30 03:51:16;;;;;;;36.60;23.13;;;;;;;;;;5012393;28;20408;-45
2021/08/30 03:53:43;;;;;;;32.83;22.10;;;;;;;;;;5012685;28;20412;-44
2021/08/30 03:56:10;;;;;;;35.20;21.73;;;;;;;;;;5012577;28;20400;-44
2021/08/30 03:58:37;;;;;;;35.07;22.97;;;;;;;;;;5012474;28;20419;-44
2021/08/30 04:01:06;;;;;;;36.83;22.97;;;;;;;;;;5011616;28;20561;-44
2021/08/30 04:03:34;;;;;;;29.07;20.90;;;;;;;;;;5012507;28;20429;-45
2021/08/30 04:06:01;;;;;;;37.17;22.93;;;;;;;;;;5012442;28;20893;-44
2021/08/30 04:08:29;;;;;;;34.87;22.20;;;;;;;;;;5012377;28;20397;-44
2021/08/30 04:10:55;;;;;;;33.27;22.07;;;;;;;;;;5011537;28;20892;-45
2021/08/30 04:13:21;;;;;;;41.00;21.93;;;;;;;;;;5012302;28;20550;-44
2021/08/30 04:15:47;;;;;;;36.90;21.73;;;;;;;;;;5012348;28;20716;-44
2021/08/30 04:18:13;;;;;;;32.03;21.00;;;;;;;;;;5012182;28;21312;-44
2021/08/30 04:20:39;;;;;;;39.73;22.67;;;;;;;;;;5012329;28;20881;-45
2021/08/30 04:23:05;;;;;;;45.33;24.50;;;;;;;;;;5012011;28;20829;-46
2021/08/30 04:25:31;;;;;;;31.57;22.10;;;;;;;;;;5012224;28;20415;-44
2021/08/30 04:27:57;;;;;;;33.73;22.80;;;;;;;;;;5012156;28;20413;-44
2021/08/30 04:30:23;;;;;;;71.13;23.10;;;;;;;;;;5011268;28;20406;-44
2021/08/30 04:32:53;;;;;;;33.07;22.60;;;;;;;;;;5010974;28;20472;-44
2021/08/30 04:35:19;;;;;;;38.40;22.03;;;;;;;;;;5012173;28;20914;-44
2021/08/30 04:37:45;;;;;;;38.43;22.27;;;;;;;;;;5012067;28;20911;-45
2021/08/30 04:40:11;;;;;;;40.43;22.77;;;;;;;;;;4994690;28;20461;-44
2021/08/30 04:42:37;;;;;;;39.93;23.40;;;;;;;;;;5011844;28;20473;-45
2021/08/30 04:45:03;;;;;;;39.50;23.30;;;;;;;;;;5012060;28;20539;-44
2021/08/30 04:47:30;;;;;;;36.17;22.70;;;;;;;;;;5011993;28;20474;-44
2021/08/30 04:49:56;;;;;;;36.80;24.17;;;;;;;;;;5012003;28;20407;-44
2021/08/30 04:52:22;;;;;;;37.80;24.33;;;;;;;;;;5011658;28;20772;-44
2021/08/30 04:54:48;;;;;;;36.83;23.50;;;;;;;;;;5011920;28;20399;-44
2021/08/30 04:57:14;;;;;;;41.83;26.10;;;;;;;;;;5011867;28;20430;-45
2021/08/30 04:59:39;;;;;;;41.57;24.30;;;;;;;;;;5016340;28;20395;-46
2021/08/30 05:02:05;;;;;;;40.10;24.60;;;;;;;;;;5010639;28;20413;-45
2021/08/30 05:04:31;;;;;;;43.57;25.37;;;;;;;;;;5011776;28;20463;-44
2021/08/30 05:06:57;;;;;;;39.30;24.90;;;;;;;;;;5011475;28;20980;-44
2021/08/30 05:09:23;;;;;;;37.43;24.40;;;;;;;;;;5010121;28;20400;-45
2021/08/30 05:11:49;;;;;;;36.43;25.47;;;;;;;;;;5010508;28;20465;-44
2021/08/30 05:14:15;;;;;;;39.87;26.10;;;;;;;;;;5011346;28;20402;-45
2021/08/30 05:16:41;;;;;;;40.70;26.10;;;;;;;;;;5011688;28;20870;-44
2021/08/30 05:19:07;;;;;;;41.00;25.80;;;;;;;;;;5011531;28;20403;-45
2021/08/30 05:21:33;;;;;;;37.90;25.03;;;;;;;;;;5012860;28;20389;-45
2021/08/30 05:23:59;;;;;;;40.17;24.60;;;;;;;;;;5015427;28;20746;-46
2021/08/30 05:26:26;;;;;;;36.30;24.00;;;;;;;;;;5015414;28;20844;-46
2021/08/30 05:28:51;;;;;;;33.63;23.03;;;;;;;;;;5015404;28;20931;-46
2021/08/30 05:31:17;;;;;;;39.50;24.73;;;;;;;;;;5014445;28;20408;-44
2021/08/30 05:33:43;;;;;;;40.27;24.60;;;;;;;;;;5014575;28;20431;-44
2021/08/30 05:36:09;;;;;;;37.83;25.63;;;;;;;;;;5015242;28;20419;-44
2021/08/30 05:38:35;;;;;;;38.77;25.97;;;;;;;;;;5014989;28;20443;-44
2021/08/30 05:41:01;;;;;;;39.70;25.53;;;;;;;;;;5013856;28;20382;-44
2021/08/30 05:43:27;;;;;;;42.67;25.47;;;;;;;;;;5014028;28;20403;-44
2021/08/30 05:45:53;;;;;;;36.70;25.70;;;;;;;;;;5015003;28;20462;-44
2021/08/30 05:48:19;;;;;;;39.67;26.93;;;;;;;;;;5014842;28;20399;-44
2021/08/30 05:50:45;;;;;;;44.00;27.57;;;;;;;;;;5014875;28;20778;-45
2021/08/30 05:53:11;;;;;;;39.33;25.80;;;;;;;;;;5014558;28;20480;-45
2021/08/30 05:55:37;;;;;;;38.87;26.10;;;;;;;;;;5014893;28;20474;-44
2021/08/30 05:58:03;;;;;;;41.80;27.40;;;;;;;;;;5014794;28;20444;-44
2021/08/30 06:00:29;;;;;;;40.40;27.67;;;;;;;;;;5013913;28;20406;-44
2021/08/30 06:02:55;;;;;;;43.30;28.10;;;;;;;;;;5014560;28;20401;-44
2021/08/30 06:05:21;;;;;;;47.00;27.73;;;;;;;;;;5014716;28;20374;-44
2021/08/30 06:07:47;;;;;;;43.73;29.43;;;;;;;;;;5014652;28;20393;-44
2021/08/30 06:10:14;;;;;;;40.77;25.77;;;;;;;;;;5014589;28;20491;-44
2021/08/30 06:12:40;;;;;;;43.57;28.53;;;;;;;;;;5014309;28;20422;-44
2021/08/30 06:15:07;;;;;;;40.17;27.50;;;;;;;;;;5014477;28;20366;-44
2021/08/30 06:17:33;;;;;;;45.07;26.13;;;;;;;;;;5014331;28;20425;-45
2021/08/30 06:19:59;;;;;;;48.10;28.97;;;;;;;;;;5014497;28;20378;-44
2021/08/30 06:22:25;;;;;;;41.30;27.07;;;;;;;;;;5014083;28;20389;-44
2021/08/30 06:24:51;;;;;;;42.53;27.00;;;;;;;;;;5014391;28;20383;-44
2021/08/30 06:27:18;;;;;;;45.93;27.77;;;;;;;;;;5014149;28;20425;-44
2021/08/30 06:29:44;;;;;;;40.47;26.80;;;;;;;;;;5013528;28;20432;-45
2021/08/30 06:32:10;;;;;;;40.63;26.13;;;;;;;;;;5013797;28;20542;-45
2021/08/30 06:34:36;;;;;;;44.20;26.87;;;;;;;;;;5013502;28;20824;-45
2021/08/30 06:37:02;;;;;;;42.10;29.10;;;;;;;;;;5014007;28;20460;-46
2021/08/30 06:39:28;;;;;;;48.03;30.20;;;;;;;;;;5014043;28;20471;-45
2021/08/30 06:41:54;;;;;;;43.87;32.37;;;;;;;;;;5013675;28;20487;-46
2021/08/30 06:44:20;;;;;;;42.30;27.93;;;;;;;;;;5013918;28;20396;-43
2021/08/30 06:46:46;;;;;;;49.93;30.43;;;;;;;;;;5013893;28;20415;-45
2021/08/30 06:49:12;;;;;;;40.00;28.93;;;;;;;;;;5013864;28;20418;-44
2021/08/30 06:51:38;;;;;;;48.83;31.90;;;;;;;;;;5013457;28;20459;-44
2021/08/30 06:54:04;;;;;;;49.43;30.40;;;;;;;;;;5013829;28;20426;-44
2021/08/30 06:56:30;;;;;;;45.37;29.30;;;;;;;;;;5012321;28;20409;-44
2021/08/30 06:58:56;;;;;;;50.80;28.70;;;;;;;;;;5013523;28;20511;-44
2021/08/30 07:01:22;;;;;;;45.23;29.13;;;;;;;;;;5012314;28;20403;-45
2021/08/30 07:03:48;;;;;;;52.60;30.00;;;;;;;;;;5013528;28;20888;-46
2021/08/30 07:06:14;;;;;;;40.97;27.93;;;;;;;;;;5013295;28;20901;-45
2021/08/30 07:08:40;;;;;;;42.37;28.60;;;;;;;;;;5013377;28;20424;-45
2021/08/30 07:11:06;;;;;;;50.83;29.90;;;;;;;;;;5013057;28;20380;-44
2021/08/30 07:13:32;;;;;;;37.53;26.60;;;;;;;;;;5013409;28;20817;-45
2021/08/30 07:15:58;;;;;;;41.37;28.90;;;;;;;;;;5013287;28;20381;-44
2021/08/30 07:18:25;;;;;;;40.10;26.80;;;;;;;;;;5013320;28;20479;-44
2021/08/30 07:20:51;;;;;;;40.93;29.13;;;;;;;;;;5012984;28;20741;-44
2021/08/30 07:23:18;;;;;;;44.37;28.93;;;;;;;;;;5013171;28;20409;-44
2021/08/30 07:25:44;;;;;;;39.10;25.63;;;;;;;;;;5013142;28;20388;-45
2021/08/30 07:28:10;;;;;;;36.73;27.83;;;;;;;;;;5012988;28;20429;-46
2021/08/30 07:30:36;;;;;;;38.80;27.33;;;;;;;;;;5012209;28;20503;-45
2021/08/30 07:33:02;;;;;;;47.30;28.07;;;;;;;;;;5012638;28;20520;-46
2021/08/30 07:35:28;;;;;;;40.23;27.27;;;;;;;;;;5012927;28;20377;-44
2021/08/30 07:37:55;;;;;;;37.53;26.00;;;;;;;;;;5012890;28;20454;-45
2021/08/30 07:40:21;;;;;;;32.30;25.27;;;;;;;;;;5013066;28;20739;-46
2021/08/30 07:42:47;;;;;;;38.90;25.33;;;;;;;;;;5012696;28;20391;-44
2021/08/30 07:45:13;;;;;;;39.33;26.80;;;;;;;;;;5012010;28;20410;-44
2021/08/30 07:47:41;;;;;;;35.90;25.27;;;;;;;;;;5012783;28;20426;-44
2021/08/30 07:50:07;;;;;;;36.00;26.60;;;;;;;;;;5012713;28;20906;-44
2021/08/30 07:52:33;;;;;;;33.60;25.10;;;;;;;;;;5012299;28;20443;-44
2021/08/30 07:54:59;;;;;;;29.17;22.90;;;;;;;;;;5012623;28;20414;-44
2021/08/30 07:57:25;;;;;;;42.27;26.00;;;;;;;;;;5012464;28;20465;-44
2021/08/30 07:59:51;;;;;;;32.50;24.93;;;;;;;;;;5011647;28;20890;-44
2021/08/30 08:02:17;;;;;;;32.37;24.53;;;;;;;;;;5012243;28;20410;-45
2021/08/30 08:04:43;;;;;;;35.87;26.93;;;;;;;;;;5012565;28;20377;-44
2021/08/30 08:07:09;;;;;;;35.80;25.00;;;;;;;;;;5012255;28;20619;-46
2021/08/30 08:09:35;;;;;;;36.60;24.53;;;;;;;;;;5012559;28;20868;-44
2021/08/30 08:12:01;;;;;;;36.90;26.57;;;;;;;;;;5012173;28;20437;-44
2021/08/30 08:14:27;;;;;;;35.20;23.90;;;;;;;;;;5012400;28;20871;-44
2021/08/30 08:16:53;;;;;;;31.50;22.10;;;;;;;;;;5012266;28;20538;-45
2021/08/30 08:19:19;;;;;;;26.90;21.50;;;;;;;;;;5012253;28;20396;-44
2021/08/30 08:21:46;;;;;;;26.37;20.27;;;;;;;;;;5012047;28;20427;-45
2021/08/30 08:24:12;;;;;;;25.53;21.57;;;;;;;;;;5012290;28;20483;-45
2021/08/30 08:26:38;;;;;;;22.77;19.30;;;;;;;;;;5012184;28;20847;-46
2021/08/30 08:29:04;;;;;;;29.77;22.47;;;;;;;;;;5011304;28;20804;-44
2021/08/30 08:31:30;;;;;;;27.47;21.53;;;;;;;;;;5011855;28;20452;-46
2021/08/30 08:33:56;;;;;;;29.63;23.70;;;;;;;;;;5012244;28;20406;-44
2021/08/30 08:36:22;;;;;;;33.13;23.30;;;;;;;;;;5012064;28;20370;-45
2021/08/30 08:38:49;;;;;;;45.50;25.50;;;;;;;;;;5011996;28;20933;-45
2021/08/30 08:41:15;;;;;;;31.10;25.70;;;;;;;;;;5011968;28;20418;-45
2021/08/30 08:43:42;;;;;;;34.20;25.83;;;;;;;;;;5012018;28;20410;-44
2021/08/30 08:46:08;;;;;;;29.80;23.47;;;;;;;;;;5012057;28;20400;-44
2021/08/30 08:48:34;;;;;;;33.10;24.27;;;;;;;;;;5011746;28;20506;-45
2021/08/30 08:51:01;;;;;;;31.90;23.90;;;;;;;;;;5011669;28;20403;-45
2021/08/30 08:53:27;;;;;;;30.07;24.40;;;;;;;;;;5011904;28;20455;-44
2021/08/30 08:55:53;;;;;;;28.00;23.13;;;;;;;;;;5012361;28;20395;-45
2021/08/30 08:58:20;;;;;;;30.23;21.73;;;;;;;;;;5015811;28;20453;-45
2021/08/30 09:00:47;;;;;;;32.60;22.43;;;;;;;;;;5015005;28;20427;-45
2021/08/30 09:03:14;;;;;;;29.33;22.53;;;;;;;;;;5014904;28;20446;-46
2021/08/30 09:05:40;;;;;;;21.27;17.87;;;;;;;;;;5015722;28;20403;-45
2021/08/30 09:08:06;;;;;;;22.40;17.97;;;;;;;;;;5015672;28;20426;-45
2021/08/30 09:10:38;;;;;;;16.70;15.00;;;;;;;;;;5015666;28;20494;-45
2021/08/30 09:13:08;;;;;;;17.80;15.50;;;;;;;;;;5015519;28;20474;-45
2021/08/30 09:15:40;;;;;;;16.93;14.50;;;;;;;;;;5015627;28;20406;-45
2021/08/30 09:18:09;;;;;;;16.80;15.00;;;;;;;;;;5015737;28;20835;-45
2021/08/30 09:20:35;;;;;;;19.33;14.80;;;;;;;;;;5015655;28;20916;-44
2021/08/30 09:23:09;;;;;;;17.20;14.20;;;;;;;;;;5016211;28;20407;-49
2021/08/30 09:25:35;;;;;;;16.47;14.60;;;;;;;;;;5015496;28;20406;-49
2021/08/30 09:28:01;;;;;;;16.90;15.00;;;;;;;;;;5015358;28;20918;-50
2021/08/30 09:30:28;;;;;;;19.13;14.83;;;;;;;;;;5015305;28;20407;-47
2021/08/30 09:32:55;;;;;;;18.67;15.17;;;;;;;;;;5014959;28;20533;-50
2021/08/30 09:35:22;;;;;;;19.40;16.53;;;;;;;;;;5014168;28;20464;-49
2021/08/30 09:37:48;;;;;;;18.10;15.80;;;;;;;;;;5014607;28;20477;-48
2021/08/30 09:40:16;;;;;;;18.83;16.83;;;;;;;;;;5015161;28;20406;-49
2021/08/30 09:42:54;;;;;;;21.53;16.73;;;;;;;;;;5014921;28;20406;-49
2021/08/30 09:45:21;;;;;;;17.63;15.47;;;;;;;;;;5015068;28;20468;-49
2021/08/30 09:47:56;;;;;;;20.40;15.57;;;;;;;;;;5015005;28;20800;-49
2021/08/30 09:50:34;;;;;;;17.60;15.37;;;;;;;;;;5014104;28;20434;-47
2021/08/30 09:53:02;;;;;;;21.67;16.40;;;;;;;;;;5014619;28;20458;-47
2021/08/30 09:55:29;;;;;;;16.67;14.97;;;;;;;;;;5014839;28;20433;-47
2021/08/30 09:57:56;;;;;;;16.63;13.57;;;;;;;;;;5014696;28;20493;-49
2021/08/30 10:00:22;;;;;;;25.83;14.07;;;;;;;;;;5014813;28;20404;-49
2021/08/30 10:02:50;;;;;;;18.10;14.20;;;;;;;;;;5014475;28;20407;-49
2021/08/30 10:05:16;;;;;;;16.70;13.60;;;;;;;;;;5014814;28;20407;-49
2021/08/30 10:07:46;;;;;;;16.50;14.17;;;;;;;;;;5013711;28;20457;-47
2021/08/30 10:10:12;;;;;;;16.03;14.53;;;;;;;;;;5013605;28;20534;-49
2021/08/30 10:12:39;;;;;;;18.33;14.53;;;;;;;;;;5014132;28;20477;-50
2021/08/30 10:15:06;;;;;;;16.27;14.50;;;;;;;;;;5013910;28;20403;-48
2021/08/30 10:17:32;;;;;;;15.80;14.13;;;;;;;;;;5013328;28;20423;-48
2021/08/30 10:19:59;;;;;;;14.90;13.03;;;;;;;;;;5014534;28;20408;-49
2021/08/30 10:22:26;;;;;;;16.97;13.43;;;;;;;;;;5014174;28;20407;-50
2021/08/30 10:24:52;;;;;;;15.10;13.53;;;;;;;;;;5014329;28;20485;-50
2021/08/30 10:27:32;;;;;;;17.30;15.43;;;;;;;;;;5014310;28;20433;-47
2021/08/30 10:30:10;;;;;;;14.23;12.73;;;;;;;;;;5014333;28;20944;-50
2021/08/30 10:32:40;;;;;;;16.83;14.17;;;;;;;;;;5014042;28;20874;-50
2021/08/30 10:35:17;;;;;;;15.23;13.57;;;;;;;;;;5013233;28;20428;-49
2021/08/30 10:37:49;;;;;;;14.27;12.03;;;;;;;;;;5014083;28;20423;-50
2021/08/30 10:40:19;;;;;;;15.00;12.40;;;;;;;;;;5014079;28;20407;-50
2021/08/30 10:42:56;;;;;;;12.90;11.60;;;;;;;;;;5013724;28;20415;-50
2021/08/30 10:45:29;;;;;;;12.73;11.50;;;;;;;;;;5013935;28;20410;-47
2021/08/30 10:47:58;;;;;;;14.77;11.30;;;;;;;;;;5013828;28;20427;-51
2021/08/30 10:50:26;;;;;;;14.10;12.77;;;;;;;;;;5013943;28;20413;-47
2021/08/30 10:53:02;;;;;;;13.33;11.93;;;;;;;;;;5013496;28;20458;-50
2021/08/30 10:55:35;;;;;;;20.60;12.40;;;;;;;;;;5003901;28;20490;-51
2021/08/30 10:58:09;;;;;;;12.77;11.53;;;;;;;;;;4996324;28;20496;-50
2021/08/30 11:00:35;;;;;;;16.30;12.80;;;;;;;;;;5013644;28;20813;-48
2021/08/30 11:03:01;;;;;;;14.30;12.73;;;;;;;;;;5009716;28;20415;-48
2021/08/30 11:05:28;;;;;;;15.43;11.67;;;;;;;;;;5003549;28;20435;-48
2021/08/30 11:07:54;;;;;;;15.70;13.07;;;;;;;;;;5006843;28;20439;-49
2021/08/30 11:10:23;;;;;;;12.73;11.43;;;;;;;;;;5002316;28;20412;-49
2021/08/30 11:12:49;;;;;;;13.87;11.83;;;;;;;;;;5004655;28;20454;-50
2021/08/30 11:15:15;;;;;;;19.63;11.47;;;;;;;;;;5003367;28;20409;-50
2021/08/30 11:17:41;;;;;;;14.00;10.93;;;;;;;;;;5003771;28;20592;-45
2021/08/30 11:20:08;;;;;;;12.40;11.20;;;;;;;;;;5002352;28;20412;-45
2021/08/30 11:22:34;;;;;;;13.03;11.60;;;;;;;;;;5001560;28;20507;-45
2021/08/30 11:25:02;;;;;;;16.70;10.37;;;;;;;;;;5003301;28;20989;-45
2021/08/30 11:27:30;;;;;;;13.43;11.00;;;;;;;;;;5003216;28;20460;-44
2021/08/30 11:29:58;;;;;;;14.20;9.10;;;;;;;;;;5001726;28;20409;-45
2021/08/30 11:32:25;;;;;;;11.83;10.73;;;;;;;;;;5004276;28;20889;-46
2021/08/30 11:34:52;;;;;;;14.80;10.00;;;;;;;;;;5011270;28;20533;-48
2021/08/30 11:37:19;;;;;;;10.27;9.17;;;;;;;;;;5011256;28;20939;-47
2021/08/30 11:39:47;;;;;;;12.80;10.70;;;;;;;;;;5012852;28;20405;-45
2021/08/30 11:42:24;;;;;;;9.97;9.00;;;;;;;;;;5012785;28;20926;-47
2021/08/30 11:44:50;;;;;;;11.30;9.50;;;;;;;;;;5012828;28;20401;-45
2021/08/30 11:47:18;;;;;;;10.70;9.70;;;;;;;;;;5012777;28;20423;-45
2021/08/30 11:49:45;;;;;;;10.33;9.00;;;;;;;;;;5012461;28;20411;-45
2021/08/30 11:52:12;;;;;;;10.00;9.10;;;;;;;;;;5011739;28;20558;-46
2021/08/30 11:54:39;;;;;;;9.43;8.53;;;;;;;;;;5011023;28;20854;-49
2021/08/30 11:57:05;;;;;;;10.00;9.10;;;;;;;;;;5010779;28;20437;-46
2021/08/30 11:59:34;;;;;;;10.50;9.40;;;;;;;;;;5010833;28;20501;-45
2021/08/30 12:02:00;;;;;;;10.70;9.70;;;;;;;;;;5010573;28;20405;-45
2021/08/30 12:04:34;;;;;;;10.43;9.43;;;;;;;;;;5010881;28;20484;-45
2021/08/30 12:07:01;;;;;;;13.23;9.40;;;;;;;;;;5010303;28;20997;-45
2021/08/30 12:09:44;;;;;;;10.60;9.50;;;;;;;;;;5012557;28;20918;-45
2021/08/30 12:12:18;;;;;;;11.23;9.20;;;;;;;;;;5012086;28;20500;-47
2021/08/30 12:15:03;;;;;;;18.33;10.43;;;;;;;;;;5012451;28;20402;-46
2021/08/30 12:17:30;;;;;;;10.20;9.30;;;;;;;;;;5012332;28;20923;-45
2021/08/30 12:19:58;;;;;;;9.47;8.57;;;;;;;;;;5012422;28;20399;-45
2021/08/30 12:22:24;;;;;;;10.40;8.70;;;;;;;;;;5011978;28;20449;-45
2021/08/30 12:24:50;;;;;;;9.43;8.40;;;;;;;;;;5012258;28;20759;-45
2021/08/30 12:27:20;;;;;;;10.53;9.53;;;;;;;;;;5012204;28;20427;-44
2021/08/30 12:29:46;;;;;;;11.90;9.13;;;;;;;;;;5012118;28;20407;-45
2021/08/30 12:32:12;;;;;;;9.30;8.50;;;;;;;;;;5011347;28;20462;-45
2021/08/30 12:34:40;;;;;;;10.07;9.07;;;;;;;;;;5012079;28;20487;-45
2021/08/30 12:37:06;;;;;;;10.90;8.93;;;;;;;;;;5010659;28;20531;-45
2021/08/30 12:39:32;;;;;;;16.87;9.07;;;;;;;;;;5012067;28;20879;-45
2021/08/30 12:41:58;;;;;;;10.37;8.30;;;;;;;;;;5011809;28;20762;-46
2021/08/30 12:44:24;;;;;;;9.60;8.03;;;;;;;;;;5012007;28;20406;-46
2021/08/30 12:46:50;;;;;;;9.90;8.70;;;;;;;;;;5012062;28;20423;-46
2021/08/30 12:49:16;;;;;;;9.53;8.63;;;;;;;;;;5012096;28;20418;-48
2021/08/30 12:51:42;;;;;;;10.20;8.37;;;;;;;;;;5011685;28;20451;-45
2021/08/30 12:54:08;;;;;;;9.70;8.77;;;;;;;;;;5011992;28;20399;-45
2021/08/30 12:56:34;;;;;;;10.10;8.40;;;;;;;;;;5011868;28;20491;-45
2021/08/30 12:59:00;;;;;;;9.27;8.37;;;;;;;;;;5010594;28;20522;-45
2021/08/30 13:01:26;;;;;;;9.90;8.67;;;;;;;;;;5011626;28;20814;-45
2021/08/30 13:03:52;;;;;;;9.77;8.77;;;;;;;;;;5011903;28;20414;-45
2021/08/30 13:06:18;;;;;;;10.27;9.27;;;;;;;;;;5011013;28;20427;-46
2021/08/30 13:08:44;;;;;;;11.60;8.90;;;;;;;;;;5011084;28;20454;-46
2021/08/30 13:11:10;;;;;;;9.37;8.03;;;;;;;;;;5011485;28;20403;-48
2021/08/30 13:13:35;;;;;;;9.63;8.63;;;;;;;;;;5011636;28;20462;-45
2021/08/30 13:16:02;;;;;;;10.13;8.73;;;;;;;;;;5011850;28;20403;-46
2021/08/30 13:18:27;;;;;;;10.13;9.00;;;;;;;;;;5011703;28;20413;-45
2021/08/30 13:20:54;;;;;;;10.23;9.23;;;;;;;;;;4993801;28;20940;-45
2021/08/30 13:23:20;;;;;;;11.70;8.80;;;;;;;;;;5011741;28;20413;-45
2021/08/30 13:25:46;;;;;;;9.90;8.67;;;;;;;;;;5011625;28;20419;-45
2021/08/30 13:28:12;;;;;;;10.70;9.60;;;;;;;;;;5011485;28;20426;-44
2021/08/30 13:30:39;;;;;;;15.27;10.33;;;;;;;;;;5011610;28;20413;-45
2021/08/30 13:33:06;;;;;;;10.23;8.90;;;;;;;;;;5011360;28;20458;-45
2021/08/30 13:35:32;;;;;;;9.50;8.50;;;;;;;;;;5010597;28;20941;-46
2021/08/30 13:37:58;;;;;;;10.60;8.97;;;;;;;;;;5011507;28;20446;-44
2021/08/30 13:40:25;;;;;;;10.13;9.00;;;;;;;;;;5011581;28;20402;-48
2021/08/30 13:42:51;;;;;;;13.40;9.43;;;;;;;;;;5012896;28;20401;-45
2021/08/30 13:45:17;;;;;;;9.63;8.63;;;;;;;;;;5016778;28;20421;-45
2021/08/30 13:47:44;;;;;;;12.53;9.00;;;;;;;;;;5014783;28;20439;-45
2021/08/30 13:50:11;;;;;;;15.23;9.00;;;;;;;;;;5015049;28;20395;-45
2021/08/30 13:52:38;;;;;;;10.40;8.57;;;;;;;;;;5014642;28;20449;-46
2021/08/30 13:55:04;;;;;;;8.70;7.90;;;;;;;;;;5013819;28;20403;-46
2021/08/30 13:57:31;;;;;;;13.50;9.10;;;;;;;;;;5012770;28;20439;-45
2021/08/30 13:59:57;;;;;;;10.60;8.80;;;;;;;;;;5013209;28;20894;-45
2021/08/30 14:02:22;;;;;;;9.80;8.90;;;;;;;;;;5013721;28;20413;-45
2021/08/30 14:04:48;;;;;;;9.97;7.70;;;;;;;;;;5014505;28;20399;-45
2021/08/30 14:07:15;;;;;;;9.00;8.10;;;;;;;;;;5013717;28;20456;-46
2021/08/30 14:09:41;;;;;;;8.37;7.60;;;;;;;;;;5014459;28;20399;-45
2021/08/30 14:12:08;;;;;;;13.37;8.47;;;;;;;;;;5014176;28;20493;-45
2021/08/30 14:14:34;;;;;;;9.03;8.13;;;;;;;;;;5014555;28;20442;-45
2021/08/30 14:17:01;;;;;;;9.00;7.93;;;;;;;;;;5014452;28;20437;-44
2021/08/30 14:19:27;;;;;;;9.57;8.57;;;;;;;;;;5014541;28;20407;-44
2021/08/30 14:21:53;;;;;;;9.43;8.43;;;;;;;;;;5014103;28;20412;-48
2021/08/30 14:24:19;;;;;;;8.67;7.70;;;;;;;;;;5014327;28;20407;-46